Check out our new PWSWeather beta!
PWSweather.com
Personal Weather Stations
Station Observations
GIRWX1
Presovsky Kraj, GiraltovceSK

Presovsky KrajGiraltovceSK

Lat: 49.118, Lon: 21.52

Elevation: 630

Station Type: wh1080

http://www.meteogiraltovce.wz.cz/

High Low Average
Temperature 50.9°F10.5°C 29.5°F-1.4°C 37.8°F3.2°C
Dew Point 40.0°F4.4°C 25.0°F-3.9°C 30.6°F-0.8°C
Winds 10.7 mph 17.2 kmh Calm Calm 3.0 mph E4.8 kmh E
Wind Gusts 14.5 mph23.3 kmh -- 4.0 mph6.4 kmh
Humidity 90% 55% 76%
Pressure 30.11 in1019.6 mb 30.02 in1016.6 mb -
Precipitation 0.00 in0.0 mm - -
Hour Temp Dew Point Humidity Winds Wind Gusts Pressure Precip Precip Rate Daily Precip Total
12:00 AM 34.9°F1.6°C 29.9°F-1.2°C 82% 1.5 mph N2.4 kmh N 3.1 mph5.0 kmh 30.10 in1019.3 mb 0.00 in0.0 mm 0.00 in0.0 mm 0.00 in0.0 mm
12:05 AM 34.7°F1.5°C 29.8°F-1.2°C 82% 1.6 mph 2.6 kmh 2.2 mph3.5 kmh 30.10 in1019.3 mb 0.00 in0.0 mm 0.00 in0.0 mm 0.00 in0.0 mm
12:10 AM 34.7°F1.5°C 29.7°F-1.3°C 82% 1.7 mph 2.7 kmh 3.1 mph5.0 kmh 30.10 in1019.3 mb 0.00 in0.0 mm 0.00 in0.0 mm 0.00 in0.0 mm
12:15 AM 34.9°F1.6°C 30.0°F-1.1°C 82% 1.6 mph NNE2.6 kmh NNE 2.2 mph3.5 kmh 30.10 in1019.3 mb 0.00 in0.0 mm 0.00 in0.0 mm 0.00 in0.0 mm
12:20 AM 34.7°F1.5°C 29.8°F-1.2°C 82% 1.8 mph NE2.9 kmh NE 3.1 mph5.0 kmh 30.10 in1019.3 mb 0.00 in0.0 mm 0.00 in0.0 mm 0.00 in0.0 mm
12:25 AM 34.4°F1.3°C 29.5°F-1.4°C 82% 0.8 mph NNE1.3 kmh NNE 2.2 mph3.5 kmh 30.10 in1019.3 mb 0.00 in0.0 mm 0.00 in0.0 mm 0.00 in0.0 mm
12:30 AM 34.1°F1.2°C 29.2°F-1.6°C 82% Calm Calm 0.7 mph1.1 kmh 30.10 in1019.3 mb 0.00 in0.0 mm 0.00 in0.0 mm 0.00 in0.0 mm
12:35 AM 33.9°F1.1°C 29.0°F-1.7°C 82% 1.8 mph NE2.9 kmh NE 4.5 mph7.2 kmh 30.10 in1019.3 mb 0.00 in0.0 mm 0.00 in0.0 mm 0.00 in0.0 mm
12:40 AM 33.8°F1.0°C 28.9°F-1.7°C 82% 2.8 mph NE4.5 kmh NE 4.5 mph7.2 kmh 30.10 in1019.3 mb 0.00 in0.0 mm 0.00 in0.0 mm 0.00 in0.0 mm
12:45 AM 33.8°F1.0°C 28.9°F-1.7°C 82% 2.2 mph NE3.5 kmh NE 3.8 mph6.1 kmh 30.10 in1019.3 mb 0.00 in0.0 mm 0.00 in0.0 mm 0.00 in0.0 mm
12:50 AM 33.8°F1.0°C 28.9°F-1.7°C 82% 2.2 mph NE3.5 kmh NE 3.8 mph6.1 kmh 30.10 in1019.3 mb 0.00 in0.0 mm 0.00 in0.0 mm 0.00 in0.0 mm
12:55 AM 33.8°F1.0°C 28.9°F-1.7°C 82% 1.9 mph NNE3.1 kmh NNE 3.1 mph5.0 kmh 30.10 in1019.3 mb 0.00 in0.0 mm 0.00 in0.0 mm 0.00 in0.0 mm
01:00 AM 33.6°F0.9°C 28.7°F-1.8°C 82% 3.0 mph NE4.8 kmh NE 4.5 mph7.2 kmh 30.10 in1019.3 mb 0.00 in0.0 mm 0.00 in0.0 mm 0.00 in0.0 mm
01:05 AM 33.3°F0.7°C 28.4°F-2.0°C 82% 2.9 mph NE4.7 kmh NE 3.8 mph6.1 kmh 30.09 in1019.0 mb 0.00 in0.0 mm 0.00 in0.0 mm 0.00 in0.0 mm
01:10 AM 33.4°F0.8°C 28.5°F-1.9°C 82% 2.1 mph NE3.4 kmh NE 3.1 mph5.0 kmh 30.09 in1019.0 mb 0.00 in0.0 mm 0.00 in0.0 mm 0.00 in0.0 mm
01:15 AM 33.7°F0.9°C 28.9°F-1.7°C 82% 1.7 mph NE2.7 kmh NE 3.1 mph5.0 kmh 30.09 in1019.0 mb 0.00 in0.0 mm 0.00 in0.0 mm 0.00 in0.0 mm
01:20 AM 33.8°F1.0°C 29.2°F-1.6°C 83% 1.3 mph NE2.1 kmh NE 3.1 mph5.0 kmh 30.09 in1019.0 mb 0.00 in0.0 mm 0.00 in0.0 mm 0.00 in0.0 mm
01:25 AM 33.6°F0.9°C 29.0°F-1.7°C 83% 1.0 mph N1.6 kmh N 2.2 mph3.5 kmh 30.09 in1019.0 mb 0.00 in0.0 mm 0.00 in0.0 mm 0.00 in0.0 mm
01:30 AM 33.4°F0.8°C 28.8°F-1.8°C 83% 1.3 mph NE2.1 kmh NE 3.1 mph5.0 kmh 30.10 in1019.3 mb 0.00 in0.0 mm 0.00 in0.0 mm 0.00 in0.0 mm
01:35 AM 33.3°F0.7°C 28.7°F-1.8°C 83% 2.6 mph NE4.2 kmh NE 3.8 mph6.1 kmh 30.09 in1019.0 mb 0.00 in0.0 mm 0.00 in0.0 mm 0.00 in0.0 mm
01:40 AM 33.4°F0.8°C 28.8°F-1.8°C 83% 1.8 mph NNE2.9 kmh NNE 3.1 mph5.0 kmh 30.10 in1019.3 mb 0.00 in0.0 mm 0.00 in0.0 mm 0.00 in0.0 mm
01:45 AM 33.6°F0.9°C 29.0°F-1.7°C 83% 1.9 mph NE3.1 kmh NE 3.1 mph5.0 kmh 30.09 in1019.0 mb 0.00 in0.0 mm 0.00 in0.0 mm 0.00 in0.0 mm
01:50 AM 33.4°F0.8°C 28.8°F-1.8°C 83% 1.4 mph NNW2.3 kmh NNW 3.1 mph5.0 kmh 30.09 in1019.0 mb 0.00 in0.0 mm 0.00 in0.0 mm 0.00 in0.0 mm
01:55 AM 33.2°F0.7°C 28.6°F-1.9°C 83% 0.8 mph NNW1.3 kmh NNW 1.6 mph2.6 kmh 30.09 in1019.0 mb 0.00 in0.0 mm 0.00 in0.0 mm 0.00 in0.0 mm
02:00 AM 32.8°F0.4°C 28.3°F-2.1°C 83% 1.4 mph NE2.3 kmh NE 2.2 mph3.5 kmh 30.09 in1019.0 mb 0.00 in0.0 mm 0.00 in0.0 mm 0.00 in0.0 mm
02:05 AM 32.7°F0.4°C 28.1°F-2.2°C 83% 1.6 mph NE2.6 kmh NE 2.2 mph3.5 kmh 30.09 in1019.0 mb 0.00 in0.0 mm 0.00 in0.0 mm 0.00 in0.0 mm
02:10 AM 32.7°F0.4°C 28.1°F-2.2°C 83% 2.5 mph NE4.0 kmh NE 3.8 mph6.1 kmh 30.09 in1019.0 mb 0.00 in0.0 mm 0.00 in0.0 mm 0.00 in0.0 mm
02:15 AM 32.9°F0.5°C 28.3°F-2.1°C 83% 2.3 mph NE3.7 kmh NE 3.8 mph6.1 kmh 30.09 in1019.0 mb 0.00 in0.0 mm 0.00 in0.0 mm 0.00 in0.0 mm
02:20 AM 32.9°F0.5°C 28.3°F-2.1°C 83% 2.2 mph NE3.5 kmh NE 3.1 mph5.0 kmh 30.09 in1019.0 mb 0.00 in0.0 mm 0.00 in0.0 mm 0.00 in0.0 mm
02:25 AM 33.0°F0.6°C 28.4°F-2.0°C 83% 2.3 mph NE3.7 kmh NE 3.1 mph5.0 kmh 30.09 in1019.0 mb 0.00 in0.0 mm 0.00 in0.0 mm 0.00 in0.0 mm
02:30 AM 33.1°F0.6°C 28.5°F-1.9°C 83% 3.2 mph NE5.1 kmh NE 4.5 mph7.2 kmh 30.09 in1019.0 mb 0.00 in0.0 mm 0.00 in0.0 mm 0.00 in0.0 mm
02:35 AM 33.3°F0.7°C 28.7°F-1.8°C 83% 2.7 mph NE4.3 kmh NE 3.8 mph6.1 kmh 30.09 in1019.0 mb 0.00 in0.0 mm 0.00 in0.0 mm 0.00 in0.0 mm
02:40 AM 33.3°F0.7°C 28.7°F-1.8°C 83% 2.3 mph NE3.7 kmh NE 3.8 mph6.1 kmh 30.09 in1019.0 mb 0.00 in0.0 mm 0.00 in0.0 mm 0.00 in0.0 mm
02:45 AM 33.4°F0.8°C 28.8°F-1.8°C 83% 1.9 mph NE3.1 kmh NE 3.1 mph5.0 kmh 30.09 in1019.0 mb 0.00 in0.0 mm 0.00 in0.0 mm 0.00 in0.0 mm
02:50 AM 33.4°F0.8°C 28.8°F-1.8°C 83% 1.9 mph NE3.1 kmh NE 3.8 mph6.1 kmh 30.09 in1019.0 mb 0.00 in0.0 mm 0.00 in0.0 mm 0.00 in0.0 mm
02:55 AM 33.4°F0.8°C 28.8°F-1.8°C 83% 1.7 mph NE2.7 kmh NE 3.1 mph5.0 kmh 30.09 in1019.0 mb 0.00 in0.0 mm 0.00 in0.0 mm 0.00 in0.0 mm
03:00 AM 33.4°F0.8°C 28.8°F-1.8°C 83% 1.3 mph 2.1 kmh 2.2 mph3.5 kmh 30.09 in1019.0 mb 0.00 in0.0 mm 0.00 in0.0 mm 0.00 in0.0 mm
03:05 AM 33.4°F0.8°C 29.1°F-1.6°C 84% 1.2 mph NNE1.9 kmh NNE 2.2 mph3.5 kmh 30.09 in1019.0 mb 0.00 in0.0 mm 0.00 in0.0 mm 0.00 in0.0 mm
03:10 AM 33.4°F0.8°C 29.1°F-1.6°C 84% 1.7 mph NE2.7 kmh NE 2.2 mph3.5 kmh 30.09 in1019.0 mb 0.00 in0.0 mm 0.00 in0.0 mm 0.00 in0.0 mm
03:15 AM 33.4°F0.8°C 29.1°F-1.6°C 84% 1.9 mph NE3.1 kmh NE 3.1 mph5.0 kmh 30.09 in1019.0 mb 0.00 in0.0 mm 0.00 in0.0 mm 0.00 in0.0 mm
03:20 AM 33.4°F0.8°C 29.1°F-1.6°C 84% 1.5 mph NE2.4 kmh NE 2.2 mph3.5 kmh 30.09 in1019.0 mb 0.00 in0.0 mm 0.00 in0.0 mm 0.00 in0.0 mm
03:25 AM 33.4°F0.8°C 29.1°F-1.6°C 84% 2.0 mph NE3.2 kmh NE 3.1 mph5.0 kmh 30.09 in1019.0 mb 0.00 in0.0 mm 0.00 in0.0 mm 0.00 in0.0 mm
03:30 AM 33.4°F0.8°C 29.1°F-1.6°C 84% 2.2 mph NE3.5 kmh NE 3.8 mph6.1 kmh 30.08 in1018.6 mb 0.00 in0.0 mm 0.00 in0.0 mm 0.00 in0.0 mm
03:35 AM 33.4°F0.8°C 29.1°F-1.6°C 84% 1.6 mph NNE2.6 kmh NNE 2.2 mph3.5 kmh 30.08 in1018.6 mb 0.00 in0.0 mm 0.00 in0.0 mm 0.00 in0.0 mm
03:40 AM 33.1°F0.6°C 28.7°F-1.8°C 84% 2.4 mph NE3.9 kmh NE 3.8 mph6.1 kmh 30.08 in1018.6 mb 0.00 in0.0 mm 0.00 in0.0 mm 0.00 in0.0 mm
03:45 AM 32.4°F0.2°C 27.8°F-2.3°C 83% 1.8 mph NE2.9 kmh NE 3.1 mph5.0 kmh 30.08 in1018.6 mb 0.00 in0.0 mm 0.00 in0.0 mm 0.00 in0.0 mm
03:50 AM 31.9°F-0.1°C 27.4°F-2.6°C 83% 1.9 mph NE3.1 kmh NE 3.1 mph5.0 kmh 30.08 in1018.6 mb 0.00 in0.0 mm 0.00 in0.0 mm 0.00 in0.0 mm
03:55 AM 31.6°F-0.2°C 27.1°F-2.7°C 83% 2.9 mph NE4.7 kmh NE 3.8 mph6.1 kmh 30.09 in1019.0 mb 0.00 in0.0 mm 0.00 in0.0 mm 0.00 in0.0 mm
04:00 AM 31.4°F-0.3°C 26.8°F-2.9°C 83% 2.9 mph NE4.7 kmh NE 3.8 mph6.1 kmh 30.09 in1019.0 mb 0.00 in0.0 mm 0.00 in0.0 mm 0.00 in0.0 mm
04:05 AM 31.3°F-0.4°C 26.7°F-2.9°C 83% 3.1 mph E5.0 kmh E 3.1 mph5.0 kmh 30.08 in1018.6 mb 0.00 in0.0 mm 0.00 in0.0 mm 0.00 in0.0 mm
04:10 AM 31.4°F-0.3°C 26.8°F-2.9°C 83% 2.6 mph ENE4.2 kmh ENE 3.1 mph5.0 kmh 30.08 in1018.6 mb 0.00 in0.0 mm 0.00 in0.0 mm 0.00 in0.0 mm
04:15 AM 31.7°F-0.2°C 27.2°F-2.7°C 83% 2.1 mph NE3.4 kmh NE 3.1 mph5.0 kmh 30.09 in1019.0 mb 0.00 in0.0 mm 0.00 in0.0 mm 0.00 in0.0 mm
04:20 AM 31.8°F-0.1°C 27.3°F-2.6°C 83% 2.5 mph NE4.0 kmh NE 3.1 mph5.0 kmh 30.08 in1018.6 mb 0.00 in0.0 mm 0.00 in0.0 mm 0.00 in0.0 mm
04:25 AM 32.0°F0.0°C 27.4°F-2.6°C 83% 2.6 mph NE4.2 kmh NE 3.8 mph6.1 kmh 30.09 in1019.0 mb 0.00 in0.0 mm 0.00 in0.0 mm 0.00 in0.0 mm
04:30 AM 32.0°F0.0°C 27.4°F-2.6°C 83% 2.1 mph NE3.4 kmh NE 3.1 mph5.0 kmh 30.09 in1019.0 mb 0.00 in0.0 mm 0.00 in0.0 mm 0.00 in0.0 mm
04:35 AM 32.0°F0.0°C 27.4°F-2.6°C 83% 0.8 mph NE1.3 kmh NE 2.2 mph3.5 kmh 30.09 in1019.0 mb 0.00 in0.0 mm 0.00 in0.0 mm 0.00 in0.0 mm
04:40 AM 32.0°F0.0°C 27.4°F-2.6°C 83% 2.0 mph NE3.2 kmh NE 3.8 mph6.1 kmh 30.09 in1019.0 mb 0.00 in0.0 mm 0.00 in0.0 mm 0.00 in0.0 mm
04:45 AM 32.0°F0.0°C 27.4°F-2.6°C 83% 2.2 mph NE3.5 kmh NE 3.8 mph6.1 kmh 30.09 in1019.0 mb 0.00 in0.0 mm 0.00 in0.0 mm 0.00 in0.0 mm
04:50 AM 32.0°F0.0°C 27.4°F-2.6°C 83% 0.5 mph N0.8 kmh N 2.2 mph3.5 kmh 30.09 in1019.0 mb 0.00 in0.0 mm 0.00 in0.0 mm 0.00 in0.0 mm
04:55 AM 31.9°F-0.1°C 27.3°F-2.6°C 83% 1.7 mph NE2.7 kmh NE 3.1 mph5.0 kmh 30.08 in1018.6 mb 0.00 in0.0 mm 0.00 in0.0 mm 0.00 in0.0 mm
05:00 AM 31.8°F-0.1°C 27.3°F-2.6°C 83% 2.2 mph NE3.5 kmh NE 3.1 mph5.0 kmh 30.08 in1018.6 mb 0.00 in0.0 mm 0.00 in0.0 mm 0.00 in0.0 mm
05:05 AM 31.9°F-0.1°C 27.6°F-2.4°C 84% 0.5 mph NNE0.8 kmh NNE 1.6 mph2.6 kmh 30.09 in1019.0 mb 0.00 in0.0 mm 0.00 in0.0 mm 0.00 in0.0 mm
05:10 AM 31.9°F-0.1°C 27.6°F-2.4°C 84% 1.0 mph NE1.6 kmh NE 2.2 mph3.5 kmh 30.09 in1019.0 mb 0.00 in0.0 mm 0.00 in0.0 mm 0.00 in0.0 mm
05:15 AM 31.5°F-0.3°C 26.9°F-2.8°C 83% 2.4 mph NE3.9 kmh NE 3.8 mph6.1 kmh 30.09 in1019.0 mb 0.00 in0.0 mm 0.00 in0.0 mm 0.00 in0.0 mm
05:20 AM 31.0°F-0.6°C 26.4°F-3.1°C 83% 2.7 mph NE4.3 kmh NE 3.8 mph6.1 kmh 30.09 in1019.0 mb 0.00 in0.0 mm 0.00 in0.0 mm 0.00 in0.0 mm
05:25 AM 30.7°F-0.7°C 26.2°F-3.2°C 83% 1.1 mph NE1.8 kmh NE 2.2 mph3.5 kmh 30.09 in1019.0 mb 0.00 in0.0 mm 0.00 in0.0 mm 0.00 in0.0 mm
05:30 AM 30.6°F-0.8°C 26.0°F-3.3°C 83% 0.5 mph NE0.8 kmh NE 1.6 mph2.6 kmh 30.09 in1019.0 mb 0.00 in0.0 mm 0.00 in0.0 mm 0.00 in0.0 mm
05:35 AM 30.6°F-0.8°C 26.0°F-3.3°C 83% 1.9 mph NE3.1 kmh NE 3.1 mph5.0 kmh 30.09 in1019.0 mb 0.00 in0.0 mm 0.00 in0.0 mm 0.00 in0.0 mm
05:40 AM 30.6°F-0.8°C 26.1°F-3.3°C 83% 2.7 mph NE4.3 kmh NE 3.8 mph6.1 kmh 30.09 in1019.0 mb 0.00 in0.0 mm 0.00 in0.0 mm 0.00 in0.0 mm
05:45 AM 30.7°F-0.7°C 26.2°F-3.2°C 83% 1.6 mph NE2.6 kmh NE 2.2 mph3.5 kmh 30.09 in1019.0 mb 0.00 in0.0 mm 0.00 in0.0 mm 0.00 in0.0 mm
05:50 AM 30.7°F-0.7°C 26.2°F-3.2°C 83% 0.5 mph NE0.8 kmh NE 1.6 mph2.6 kmh 30.09 in1019.0 mb 0.00 in0.0 mm 0.00 in0.0 mm 0.00 in0.0 mm
05:55 AM 30.7°F-0.7°C 26.2°F-3.2°C 83% 1.1 mph NE1.8 kmh NE 2.2 mph3.5 kmh 30.09 in1019.0 mb 0.00 in0.0 mm 0.00 in0.0 mm 0.00 in0.0 mm
06:00 AM 30.6°F-0.8°C 26.1°F-3.3°C 83% 2.7 mph NE4.3 kmh NE 4.5 mph7.2 kmh 30.09 in1019.0 mb 0.00 in0.0 mm 0.00 in0.0 mm 0.00 in0.0 mm
06:05 AM 30.6°F-0.8°C 26.0°F-3.3°C 83% 3.8 mph NE6.1 kmh NE 4.5 mph7.2 kmh 30.09 in1019.0 mb 0.00 in0.0 mm 0.00 in0.0 mm 0.00 in0.0 mm
06:10 AM 30.7°F-0.7°C 26.1°F-3.3°C 83% 2.7 mph NE4.3 kmh NE 4.5 mph7.2 kmh 30.09 in1019.0 mb 0.00 in0.0 mm 0.00 in0.0 mm 0.00 in0.0 mm
06:15 AM 30.6°F-0.8°C 26.0°F-3.3°C 83% 2.9 mph ENE4.7 kmh ENE 3.8 mph6.1 kmh 30.09 in1019.0 mb 0.00 in0.0 mm 0.00 in0.0 mm 0.00 in0.0 mm
06:20 AM 30.2°F-1.0°C 25.7°F-3.5°C 83% 1.9 mph NE3.1 kmh NE 3.8 mph6.1 kmh 30.09 in1019.0 mb 0.00 in0.0 mm 0.00 in0.0 mm 0.00 in0.0 mm
06:25 AM 29.9°F-1.2°C 25.4°F-3.7°C 83% 1.5 mph NE2.4 kmh NE 3.1 mph5.0 kmh 30.09 in1019.0 mb 0.00 in0.0 mm 0.00 in0.0 mm 0.00 in0.0 mm
06:30 AM 29.8°F-1.2°C 25.2°F-3.8°C 83% 0.8 mph E1.3 kmh E 2.2 mph3.5 kmh 30.09 in1019.0 mb 0.00 in0.0 mm 0.00 in0.0 mm 0.00 in0.0 mm
06:35 AM 29.6°F-1.3°C 25.0°F-3.9°C 83% 0.2 mph WNW0.3 kmh WNW 1.6 mph2.6 kmh 30.09 in1019.0 mb 0.00 in0.0 mm 0.00 in0.0 mm 0.00 in0.0 mm
06:40 AM 29.5°F-1.4°C 25.0°F-3.9°C 83% 0.2 mph SE0.3 kmh SE 1.6 mph2.6 kmh 30.10 in1019.3 mb 0.00 in0.0 mm 0.00 in0.0 mm 0.00 in0.0 mm
06:45 AM 29.5°F-1.4°C 25.0°F-3.9°C 83% 0.2 mph SW0.3 kmh SW 0.7 mph1.1 kmh 30.09 in1019.0 mb 0.00 in0.0 mm 0.00 in0.0 mm 0.00 in0.0 mm
06:50 AM 29.5°F-1.4°C 25.0°F-3.9°C 83% Calm Calm -- 30.10 in1019.3 mb 0.00 in0.0 mm 0.00 in0.0 mm 0.00 in0.0 mm
06:55 AM 29.6°F-1.3°C 25.1°F-3.8°C 83% 0.3 mph NW0.5 kmh NW 1.6 mph2.6 kmh 30.09 in1019.0 mb 0.00 in0.0 mm 0.00 in0.0 mm 0.00 in0.0 mm
07:00 AM 29.7°F-1.3°C 25.1°F-3.8°C 83% Calm Calm 0.7 mph1.1 kmh 30.10 in1019.3 mb 0.00 in0.0 mm 0.00 in0.0 mm 0.00 in0.0 mm
07:05 AM 29.7°F-1.3°C 25.1°F-3.8°C 83% 0.2 mph 0.3 kmh 1.6 mph2.6 kmh 30.10 in1019.3 mb 0.00 in0.0 mm 0.00 in0.0 mm 0.00 in0.0 mm
07:10 AM 29.8°F-1.2°C 25.2°F-3.8°C 83% 0.3 mph 0.5 kmh 1.6 mph2.6 kmh 30.10 in1019.3 mb 0.00 in0.0 mm 0.00 in0.0 mm 0.00 in0.0 mm
07:15 AM 29.8°F-1.2°C 25.2°F-3.8°C 83% 0.3 mph 0.5 kmh 1.6 mph2.6 kmh 30.10 in1019.3 mb 0.00 in0.0 mm 0.00 in0.0 mm 0.00 in0.0 mm
07:20 AM 29.7°F-1.3°C 25.1°F-3.8°C 83% 0.5 mph NNE0.8 kmh NNE 1.6 mph2.6 kmh 30.10 in1019.3 mb 0.00 in0.0 mm 0.00 in0.0 mm 0.00 in0.0 mm
07:25 AM 29.7°F-1.3°C 25.1°F-3.8°C 83% 0.6 mph W1.0 kmh W 1.6 mph2.6 kmh 30.10 in1019.3 mb 0.00 in0.0 mm 0.00 in0.0 mm 0.00 in0.0 mm
07:30 AM 29.7°F-1.3°C 25.1°F-3.8°C 83% Calm Calm 0.7 mph1.1 kmh 30.10 in1019.3 mb 0.00 in0.0 mm 0.00 in0.0 mm 0.00 in0.0 mm
07:35 AM 29.7°F-1.3°C 25.2°F-3.8°C 83% Calm Calm 0.7 mph1.1 kmh 30.10 in1019.3 mb 0.00 in0.0 mm 0.00 in0.0 mm 0.00 in0.0 mm
07:40 AM 29.8°F-1.2°C 25.3°F-3.7°C 83% 0.3 mph W0.5 kmh W 1.6 mph2.6 kmh 30.10 in1019.3 mb 0.00 in0.0 mm 0.00 in0.0 mm 0.00 in0.0 mm
07:45 AM 30.0°F-1.1°C 25.5°F-3.6°C 83% Calm Calm 0.7 mph1.1 kmh 30.10 in1019.3 mb 0.00 in0.0 mm 0.00 in0.0 mm 0.00 in0.0 mm
07:50 AM 30.1°F-1.1°C 25.6°F-3.6°C 83% Calm Calm 0.7 mph1.1 kmh 30.10 in1019.3 mb 0.00 in0.0 mm 0.00 in0.0 mm 0.00 in0.0 mm
07:55 AM 30.5°F-0.8°C 26.0°F-3.3°C 83% 0.2 mph W0.3 kmh W 1.6 mph2.6 kmh 30.10 in1019.3 mb 0.00 in0.0 mm 0.00 in0.0 mm 0.00 in0.0 mm
08:00 AM 30.8°F-0.7°C 26.3°F-3.2°C 83% 0.6 mph SW1.0 kmh SW 2.2 mph3.5 kmh 30.10 in1019.3 mb 0.00 in0.0 mm 0.00 in0.0 mm 0.00 in0.0 mm
08:05 AM 30.9°F-0.6°C 26.4°F-3.1°C 83% 0.7 mph SW1.1 kmh SW 1.6 mph2.6 kmh 30.11 in1019.6 mb 0.00 in0.0 mm 0.00 in0.0 mm 0.00 in0.0 mm
08:10 AM 31.2°F-0.4°C 26.9°F-2.8°C 84% 0.2 mph SW0.3 kmh SW 1.6 mph2.6 kmh 30.11 in1019.6 mb 0.00 in0.0 mm 0.00 in0.0 mm 0.00 in0.0 mm
08:15 AM 31.5°F-0.3°C 27.2°F-2.7°C 84% 0.3 mph 0.5 kmh 2.2 mph3.5 kmh 30.10 in1019.3 mb 0.00 in0.0 mm 0.00 in0.0 mm 0.00 in0.0 mm
08:20 AM 31.7°F-0.2°C 27.4°F-2.6°C 84% 0.8 mph NNE1.3 kmh NNE 1.6 mph2.6 kmh 30.10 in1019.3 mb 0.00 in0.0 mm 0.00 in0.0 mm 0.00 in0.0 mm
08:25 AM 31.9°F-0.1°C 27.6°F-2.4°C 84% 1.3 mph NE2.1 kmh NE 3.1 mph5.0 kmh 30.10 in1019.3 mb 0.00 in0.0 mm 0.00 in0.0 mm 0.00 in0.0 mm
08:30 AM 32.1°F0.1°C 27.8°F-2.3°C 84% 1.7 mph NE2.7 kmh NE 3.1 mph5.0 kmh 30.10 in1019.3 mb 0.00 in0.0 mm 0.00 in0.0 mm 0.00 in0.0 mm
08:35 AM 32.2°F0.1°C 28.0°F-2.2°C 84% 0.3 mph NE0.5 kmh NE 1.6 mph2.6 kmh 30.10 in1019.3 mb 0.00 in0.0 mm 0.00 in0.0 mm 0.00 in0.0 mm
08:40 AM 32.4°F0.2°C 28.1°F-2.2°C 84% 0.2 mph ENE0.3 kmh ENE 1.6 mph2.6 kmh 30.10 in1019.3 mb 0.00 in0.0 mm 0.00 in0.0 mm 0.00 in0.0 mm
08:45 AM 32.5°F0.3°C 28.2°F-2.1°C 84% 1.0 mph NE1.6 kmh NE 2.2 mph3.5 kmh 30.10 in1019.3 mb 0.00 in0.0 mm 0.00 in0.0 mm 0.00 in0.0 mm
08:50 AM 32.7°F0.4°C 28.4°F-2.0°C 84% Calm Calm 0.7 mph1.1 kmh 30.10 in1019.3 mb 0.00 in0.0 mm 0.00 in0.0 mm 0.00 in0.0 mm
08:55 AM 33.0°F0.6°C 28.7°F-1.8°C 84% 0.5 mph NNE0.8 kmh NNE 2.2 mph3.5 kmh 30.10 in1019.3 mb 0.00 in0.0 mm 0.00 in0.0 mm 0.00 in0.0 mm
09:00 AM 33.5°F0.8°C 29.5°F-1.4°C 85% 1.4 mph NNE2.3 kmh NNE 2.2 mph3.5 kmh 30.10 in1019.3 mb 0.00 in0.0 mm 0.00 in0.0 mm 0.00 in0.0 mm
09:05 AM 34.2°F1.2°C 30.2°F-1.0°C 85% 1.2 mph SE1.9 kmh SE 3.1 mph5.0 kmh 30.10 in1019.3 mb 0.00 in0.0 mm 0.00 in0.0 mm 0.00 in0.0 mm
09:10 AM 34.9°F1.6°C 31.0°F-0.6°C 86% 1.2 mph NNE1.9 kmh NNE 2.2 mph3.5 kmh 30.10 in1019.3 mb 0.00 in0.0 mm 0.00 in0.0 mm 0.00 in0.0 mm
09:15 AM 36.0°F2.2°C 32.3°F0.2°C 86% 1.9 mph NE3.1 kmh NE 3.1 mph5.0 kmh 30.09 in1019.0 mb 0.00 in0.0 mm 0.00 in0.0 mm 0.00 in0.0 mm
09:20 AM 37.1°F2.8°C 33.6°F0.9°C 87% 1.9 mph NE3.1 kmh NE 3.1 mph5.0 kmh 30.10 in1019.3 mb 0.00 in0.0 mm 0.00 in0.0 mm 0.00 in0.0 mm
09:25 AM 37.6°F3.1°C 34.4°F1.3°C 88% 1.5 mph S2.4 kmh S 3.1 mph5.0 kmh 30.10 in1019.3 mb 0.00 in0.0 mm 0.00 in0.0 mm 0.00 in0.0 mm
09:30 AM 37.8°F3.2°C 34.6°F1.4°C 88% 0.3 mph ENE0.5 kmh ENE 1.6 mph2.6 kmh 30.10 in1019.3 mb 0.00 in0.0 mm 0.00 in0.0 mm 0.00 in0.0 mm
09:35 AM 38.3°F3.5°C 35.3°F1.8°C 89% 0.7 mph ENE1.1 kmh ENE 2.2 mph3.5 kmh 30.09 in1019.0 mb 0.00 in0.0 mm 0.00 in0.0 mm 0.00 in0.0 mm
09:40 AM 39.0°F3.9°C 36.0°F2.2°C 89% 0.9 mph SE1.4 kmh SE 2.2 mph3.5 kmh 30.09 in1019.0 mb 0.00 in0.0 mm 0.00 in0.0 mm 0.00 in0.0 mm
09:45 AM 40.0°F4.4°C 37.4°F3.0°C 90% 1.1 mph E1.8 kmh E 2.2 mph3.5 kmh 30.09 in1019.0 mb 0.00 in0.0 mm 0.00 in0.0 mm 0.00 in0.0 mm
09:50 AM 41.0°F5.0°C 38.3°F3.5°C 90% 0.8 mph NW1.3 kmh NW 2.2 mph3.5 kmh 30.09 in1019.0 mb 0.00 in0.0 mm 0.00 in0.0 mm 0.00 in0.0 mm
09:55 AM 41.6°F5.3°C 38.9°F3.8°C 90% 1.7 mph SSW2.7 kmh SSW 3.1 mph5.0 kmh 30.09 in1019.0 mb 0.00 in0.0 mm 0.00 in0.0 mm 0.00 in0.0 mm
10:00 AM 42.2°F5.7°C 39.7°F4.3°C 90% 1.5 mph SE2.4 kmh SE 3.1 mph5.0 kmh 30.09 in1019.0 mb 0.00 in0.0 mm 0.00 in0.0 mm 0.00 in0.0 mm
10:05 AM 42.6°F5.9°C 39.9°F4.4°C 90% Calm Calm 0.7 mph1.1 kmh 30.09 in1019.0 mb 0.00 in0.0 mm 0.00 in0.0 mm 0.00 in0.0 mm
10:10 AM 43.9°F6.6°C 40.0°F4.4°C 86% 2.4 mph SW3.9 kmh SW 6.0 mph9.7 kmh 30.08 in1018.6 mb 0.00 in0.0 mm 0.00 in0.0 mm 0.00 in0.0 mm
10:15 AM 45.0°F7.2°C 39.5°F4.2°C 81% 4.5 mph SSW7.2 kmh SSW 6.9 mph11.1 kmh 30.09 in1019.0 mb 0.00 in0.0 mm 0.00 in0.0 mm 0.00 in0.0 mm
10:20 AM 45.9°F7.7°C 38.0°F3.3°C 74% 4.8 mph SW7.7 kmh SW 7.6 mph12.2 kmh 30.08 in1018.6 mb 0.00 in0.0 mm 0.00 in0.0 mm 0.00 in0.0 mm
10:25 AM 46.7°F8.2°C 36.8°F2.7°C 68% 5.3 mph SW8.5 kmh SW 7.6 mph12.2 kmh 30.08 in1018.6 mb 0.00 in0.0 mm 0.00 in0.0 mm 0.00 in0.0 mm
10:30 AM 47.2°F8.4°C 36.4°F2.4°C 66% 4.7 mph SW7.6 kmh SW 7.6 mph12.2 kmh 30.08 in1018.6 mb 0.00 in0.0 mm 0.00 in0.0 mm 0.00 in0.0 mm
10:35 AM 47.7°F8.7°C 36.1°F2.3°C 64% 4.2 mph SW6.8 kmh SW 7.6 mph12.2 kmh 30.07 in1018.3 mb 0.00 in0.0 mm 0.00 in0.0 mm 0.00 in0.0 mm
10:40 AM 48.0°F8.9°C 36.1°F2.3°C 63% 3.4 mph SSE5.5 kmh SSE 6.9 mph11.1 kmh 30.07 in1018.3 mb 0.00 in0.0 mm 0.00 in0.0 mm 0.00 in0.0 mm
10:45 AM 48.3°F9.1°C 36.2°F2.3°C 63% 4.4 mph S7.1 kmh S 6.9 mph11.1 kmh 30.07 in1018.3 mb 0.00 in0.0 mm 0.00 in0.0 mm 0.00 in0.0 mm
10:50 AM 48.4°F9.1°C 36.0°F2.2°C 62% 5.5 mph SW8.9 kmh SW 8.3 mph13.4 kmh 30.07 in1018.3 mb 0.00 in0.0 mm 0.00 in0.0 mm 0.00 in0.0 mm
10:55 AM 48.4°F9.1°C 36.0°F2.2°C 62% 6.2 mph S10.0 kmh S 10.7 mph17.2 kmh 30.07 in1018.3 mb 0.00 in0.0 mm 0.00 in0.0 mm 0.00 in0.0 mm
11:00 AM 48.1°F8.9°C 35.5°F1.9°C 62% 6.8 mph SSW10.9 kmh SSW 9.8 mph15.8 kmh 30.07 in1018.3 mb 0.00 in0.0 mm 0.00 in0.0 mm 0.00 in0.0 mm
11:05 AM 48.1°F8.9°C 35.8°F2.1°C 62% 6.5 mph S10.5 kmh S 9.8 mph15.8 kmh 30.06 in1017.9 mb 0.00 in0.0 mm 0.00 in0.0 mm 0.00 in0.0 mm
11:10 AM 48.7°F9.3°C 36.3°F2.4°C 62% 5.6 mph S9.0 kmh S 10.7 mph17.2 kmh 30.06 in1017.9 mb 0.00 in0.0 mm 0.00 in0.0 mm 0.00 in0.0 mm
11:15 AM 48.9°F9.4°C 36.3°F2.4°C 62% 6.6 mph S10.6 kmh S 9.8 mph15.8 kmh 30.06 in1017.9 mb 0.00 in0.0 mm 0.00 in0.0 mm 0.00 in0.0 mm
11:20 AM 48.8°F9.3°C 36.0°F2.2°C 61% 6.6 mph S10.6 kmh S 9.8 mph15.8 kmh 30.06 in1017.9 mb 0.00 in0.0 mm 0.00 in0.0 mm 0.00 in0.0 mm
11:25 AM 48.8°F9.3°C 35.9°F2.2°C 61% 8.1 mph S13.0 kmh S 10.7 mph17.2 kmh 30.06 in1017.9 mb 0.00 in0.0 mm 0.00 in0.0 mm 0.00 in0.0 mm
11:30 AM 48.9°F9.4°C 36.0°F2.2°C 61% 6.2 mph SW10.0 kmh SW 9.8 mph15.8 kmh 30.06 in1017.9 mb 0.00 in0.0 mm 0.00 in0.0 mm 0.00 in0.0 mm
11:35 AM 49.0°F9.4°C 35.8°F2.1°C 60% 8.6 mph S13.8 kmh S 13.0 mph20.9 kmh 30.06 in1017.9 mb 0.00 in0.0 mm 0.00 in0.0 mm 0.00 in0.0 mm
11:40 AM 49.1°F9.5°C 35.8°F2.1°C 60% 9.2 mph SSW14.8 kmh SSW 13.0 mph20.9 kmh 30.06 in1017.9 mb 0.00 in0.0 mm 0.00 in0.0 mm 0.00 in0.0 mm
11:45 AM 49.2°F9.6°C 35.9°F2.2°C 60% 6.3 mph SSW10.1 kmh SSW 9.8 mph15.8 kmh 30.06 in1017.9 mb 0.00 in0.0 mm 0.00 in0.0 mm 0.00 in0.0 mm
11:50 AM 49.5°F9.7°C 36.2°F2.3°C 60% 6.4 mph S10.3 kmh S 10.7 mph17.2 kmh 30.05 in1017.6 mb 0.00 in0.0 mm 0.00 in0.0 mm 0.00 in0.0 mm
11:55 AM 49.4°F9.7°C 36.1°F2.3°C 60% 7.9 mph S12.7 kmh S 11.4 mph18.3 kmh 30.05 in1017.6 mb 0.00 in0.0 mm 0.00 in0.0 mm 0.00 in0.0 mm
12:00 PM 49.6°F9.8°C 36.3°F2.4°C 60% 7.9 mph S12.7 kmh S 12.1 mph19.5 kmh 30.05 in1017.6 mb 0.00 in0.0 mm 0.00 in0.0 mm 0.00 in0.0 mm
12:05 PM 49.7°F9.8°C 36.1°F2.3°C 59% 9.5 mph S15.3 kmh S 12.1 mph19.5 kmh 30.05 in1017.6 mb 0.00 in0.0 mm 0.00 in0.0 mm 0.00 in0.0 mm
12:10 PM 49.5°F9.7°C 35.7°F2.1°C 59% 8.2 mph S13.2 kmh S 14.5 mph23.3 kmh 30.05 in1017.6 mb 0.00 in0.0 mm 0.00 in0.0 mm 0.00 in0.0 mm
12:15 PM 49.4°F9.7°C 35.4°F1.9°C 58% 10.6 mph SSW17.1 kmh SSW 14.5 mph23.3 kmh 30.05 in1017.6 mb 0.00 in0.0 mm 0.00 in0.0 mm 0.00 in0.0 mm
12:20 PM 49.3°F9.6°C 35.2°F1.8°C 58% 9.5 mph S15.3 kmh S 14.5 mph23.3 kmh 30.04 in1017.3 mb 0.00 in0.0 mm 0.00 in0.0 mm 0.00 in0.0 mm
12:25 PM 49.3°F9.6°C 35.7°F2.1°C 59% 9.3 mph S15.0 kmh S 13.6 mph21.9 kmh 30.04 in1017.3 mb 0.00 in0.0 mm 0.00 in0.0 mm 0.00 in0.0 mm
12:30 PM 49.5°F9.7°C 35.7°F2.1°C 59% 9.4 mph S15.1 kmh S 13.0 mph20.9 kmh 30.04 in1017.3 mb 0.00 in0.0 mm 0.00 in0.0 mm 0.00 in0.0 mm
12:35 PM 49.5°F9.7°C 35.6°F2.0°C 59% 10.7 mph SSW17.2 kmh SSW 14.5 mph23.3 kmh 30.04 in1017.3 mb 0.00 in0.0 mm 0.00 in0.0 mm 0.00 in0.0 mm
12:40 PM 49.6°F9.8°C 35.7°F2.1°C 59% 9.6 mph S15.4 kmh S 13.6 mph21.9 kmh 30.04 in1017.3 mb 0.00 in0.0 mm 0.00 in0.0 mm 0.00 in0.0 mm
12:45 PM 49.7°F9.8°C 35.7°F2.1°C 58% 8.1 mph S13.0 kmh S 11.4 mph18.3 kmh 30.04 in1017.3 mb 0.00 in0.0 mm 0.00 in0.0 mm 0.00 in0.0 mm
12:50 PM 49.8°F9.9°C 36.0°F2.2°C 59% 7.9 mph S12.7 kmh S 11.4 mph18.3 kmh 30.04 in1017.3 mb 0.00 in0.0 mm 0.00 in0.0 mm 0.00 in0.0 mm
12:55 PM 50.1°F10.1°C 36.3°F2.4°C 59% 6.3 mph SE10.1 kmh SE 8.3 mph13.4 kmh 30.04 in1017.3 mb 0.00 in0.0 mm 0.00 in0.0 mm 0.00 in0.0 mm
01:00 PM 50.4°F10.2°C 36.4°F2.4°C 59% 6.6 mph S10.6 kmh S 9.8 mph15.8 kmh 30.03 in1016.9 mb 0.00 in0.0 mm 0.00 in0.0 mm 0.00 in0.0 mm
01:05 PM 50.6°F10.3°C 36.4°F2.4°C 58% 7.2 mph SE11.6 kmh SE 9.2 mph14.8 kmh 30.03 in1016.9 mb 0.00 in0.0 mm 0.00 in0.0 mm 0.00 in0.0 mm
01:10 PM 50.8°F10.4°C 36.6°F2.6°C 58% 6.3 mph SE10.1 kmh SE 9.8 mph15.8 kmh 30.03 in1016.9 mb 0.00 in0.0 mm 0.00 in0.0 mm 0.00 in0.0 mm
01:15 PM 50.9°F10.5°C 36.1°F2.3°C 57% 5.8 mph SSW9.3 kmh SSW 9.8 mph15.8 kmh 30.03 in1016.9 mb 0.00 in0.0 mm 0.00 in0.0 mm 0.00 in0.0 mm
01:20 PM 50.7°F10.4°C 35.8°F2.1°C 56% 5.9 mph SE9.5 kmh SE 8.3 mph13.4 kmh 30.03 in1016.9 mb 0.00 in0.0 mm 0.00 in0.0 mm 0.00 in0.0 mm
01:25 PM 50.9°F10.5°C 35.7°F2.1°C 56% 4.9 mph S7.9 kmh S 7.6 mph12.2 kmh 30.03 in1016.9 mb 0.00 in0.0 mm 0.00 in0.0 mm 0.00 in0.0 mm
01:30 PM 50.7°F10.4°C 35.1°F1.7°C 55% 6.2 mph S10.0 kmh S 9.2 mph14.8 kmh 30.03 in1016.9 mb 0.00 in0.0 mm 0.00 in0.0 mm 0.00 in0.0 mm
01:35 PM 50.5°F10.3°C 35.0°F1.7°C 55% 6.0 mph S9.7 kmh S 8.3 mph13.4 kmh 30.03 in1016.9 mb 0.00 in0.0 mm 0.00 in0.0 mm 0.00 in0.0 mm
01:40 PM 50.4°F10.2°C 35.3°F1.8°C 56% 5.7 mph S9.2 kmh S 6.9 mph11.1 kmh 30.03 in1016.9 mb 0.00 in0.0 mm 0.00 in0.0 mm 0.00 in0.0 mm
01:45 PM 50.4°F10.2°C 35.3°F1.8°C 56% 6.4 mph S10.3 kmh S 8.3 mph13.4 kmh 30.03 in1016.9 mb 0.00 in0.0 mm 0.00 in0.0 mm 0.00 in0.0 mm
01:50 PM 50.4°F10.2°C 35.7°F2.1°C 57% 5.5 mph S8.9 kmh S 9.8 mph15.8 kmh 30.03 in1016.9 mb 0.00 in0.0 mm 0.00 in0.0 mm 0.00 in0.0 mm
01:55 PM 50.5°F10.3°C 35.9°F2.2°C 57% 4.2 mph S6.8 kmh S 6.0 mph9.7 kmh 30.03 in1016.9 mb 0.00 in0.0 mm 0.00 in0.0 mm 0.00 in0.0 mm
02:00 PM 50.6°F10.3°C 36.1°F2.3°C 57% 3.3 mph SW5.3 kmh SW 6.0 mph9.7 kmh 30.02 in1016.6 mb 0.00 in0.0 mm 0.00 in0.0 mm 0.00 in0.0 mm
02:05 PM 50.7°F10.4°C 36.5°F2.5°C 58% 3.1 mph SW5.0 kmh SW 3.8 mph6.1 kmh 30.02 in1016.6 mb 0.00 in0.0 mm 0.00 in0.0 mm 0.00 in0.0 mm
02:10 PM 50.7°F10.4°C 36.1°F2.3°C 57% 5.2 mph S8.4 kmh S 6.9 mph11.1 kmh 30.02 in1016.6 mb 0.00 in0.0 mm 0.00 in0.0 mm 0.00 in0.0 mm
02:15 PM 50.7°F10.4°C 36.0°F2.2°C 57% 3.2 mph SSW5.1 kmh SSW 6.0 mph9.7 kmh 30.02 in1016.6 mb 0.00 in0.0 mm 0.00 in0.0 mm 0.00 in0.0 mm
02:20 PM 50.7°F10.4°C 36.0°F2.2°C 57% 4.0 mph S6.4 kmh S 5.4 mph8.7 kmh 30.02 in1016.6 mb 0.00 in0.0 mm 0.00 in0.0 mm 0.00 in0.0 mm
02:25 PM 50.6°F10.3°C 36.0°F2.2°C 57% 4.7 mph S7.6 kmh S 7.6 mph12.2 kmh 30.02 in1016.6 mb 0.00 in0.0 mm 0.00 in0.0 mm 0.00 in0.0 mm
02:30 PM 50.5°F10.3°C 35.9°F2.2°C 57% 5.4 mph S8.7 kmh S 7.6 mph12.2 kmh 30.02 in1016.6 mb 0.00 in0.0 mm 0.00 in0.0 mm 0.00 in0.0 mm
02:35 PM 50.3°F10.2°C 35.9°F2.2°C 58% 5.3 mph SSW8.5 kmh SSW 8.3 mph13.4 kmh 30.02 in1016.6 mb 0.00 in0.0 mm 0.00 in0.0 mm 0.00 in0.0 mm
02:40 PM 50.1°F10.1°C 35.9°F2.2°C 58% 6.3 mph S10.1 kmh S 9.2 mph14.8 kmh 30.02 in1016.6 mb 0.00 in0.0 mm 0.00 in0.0 mm 0.00 in0.0 mm
02:45 PM 50.0°F10.0°C 36.1°F2.3°C 59% 5.0 mph S8.0 kmh S 8.3 mph13.4 kmh 30.02 in1016.6 mb 0.00 in0.0 mm 0.00 in0.0 mm 0.00 in0.0 mm
02:50 PM 49.9°F9.9°C 36.1°F2.3°C 59% 6.0 mph S9.7 kmh S 7.6 mph12.2 kmh 30.02 in1016.6 mb 0.00 in0.0 mm 0.00 in0.0 mm 0.00 in0.0 mm
02:55 PM 49.8°F9.9°C 36.0°F2.2°C 59% 6.1 mph SSE9.8 kmh SSE 8.3 mph13.4 kmh 30.02 in1016.6 mb 0.00 in0.0 mm 0.00 in0.0 mm 0.00 in0.0 mm
03:00 PM 49.6°F9.8°C 35.8°F2.1°C 59% 7.2 mph S11.6 kmh S 9.2 mph14.8 kmh 30.02 in1016.6 mb 0.00 in0.0 mm 0.00 in0.0 mm 0.00 in0.0 mm
03:05 PM 49.5°F9.7°C 35.7°F2.1°C 59% 8.3 mph S13.4 kmh S 9.2 mph14.8 kmh 30.02 in1016.6 mb 0.00 in0.0 mm 0.00 in0.0 mm 0.00 in0.0 mm
03:10 PM 49.3°F9.6°C 35.5°F1.9°C 59% 7.6 mph S12.2 kmh S 10.7 mph17.2 kmh 30.02 in1016.6 mb 0.00 in0.0 mm 0.00 in0.0 mm 0.00 in0.0 mm
03:15 PM 48.9°F9.4°C 35.3°F1.8°C 59% 6.5 mph S10.5 kmh S 9.8 mph15.8 kmh 30.02 in1016.6 mb 0.00 in0.0 mm 0.00 in0.0 mm 0.00 in0.0 mm
03:20 PM 48.7°F9.3°C 35.2°F1.8°C 59% 5.9 mph S9.5 kmh S 9.2 mph14.8 kmh 30.02 in1016.6 mb 0.00 in0.0 mm 0.00 in0.0 mm 0.00 in0.0 mm
03:25 PM 48.5°F9.2°C 35.2°F1.8°C 60% 5.5 mph SSE8.9 kmh SSE 7.6 mph12.2 kmh 30.02 in1016.6 mb 0.00 in0.0 mm 0.00 in0.0 mm 0.00 in0.0 mm
03:30 PM 48.2°F9.0°C 35.0°F1.7°C 60% 5.4 mph S8.7 kmh S 9.2 mph14.8 kmh 30.02 in1016.6 mb 0.00 in0.0 mm 0.00 in0.0 mm 0.00 in0.0 mm
03:35 PM 47.9°F8.8°C 34.7°F1.5°C 60% 5.4 mph S8.7 kmh S 6.9 mph11.1 kmh 30.02 in1016.6 mb 0.00 in0.0 mm 0.00 in0.0 mm 0.00 in0.0 mm
03:40 PM 47.7°F8.7°C 34.5°F1.4°C 60% 5.4 mph SSW8.7 kmh SSW 7.6 mph12.2 kmh 30.02 in1016.6 mb 0.00 in0.0 mm 0.00 in0.0 mm 0.00 in0.0 mm
03:45 PM 47.4°F8.6°C 34.7°F1.5°C 61% 4.3 mph S6.9 kmh S 6.0 mph9.7 kmh 30.02 in1016.6 mb 0.00 in0.0 mm 0.00 in0.0 mm 0.00 in0.0 mm
03:50 PM 47.2°F8.4°C 34.4°F1.3°C 61% 4.0 mph SSW6.4 kmh SSW 6.0 mph9.7 kmh 30.02 in1016.6 mb 0.00 in0.0 mm 0.00 in0.0 mm 0.00 in0.0 mm
03:55 PM 46.9°F8.3°C 34.2°F1.2°C 61% 4.6 mph S7.4 kmh S 6.0 mph9.7 kmh 30.02 in1016.6 mb 0.00 in0.0 mm 0.00 in0.0 mm 0.00 in0.0 mm
04:00 PM 46.8°F8.2°C 34.0°F1.1°C 61% 4.0 mph S6.4 kmh S 6.0 mph9.7 kmh 30.02 in1016.6 mb 0.00 in0.0 mm 0.00 in0.0 mm 0.00 in0.0 mm
04:05 PM 46.8°F8.2°C 34.0°F1.1°C 61% 4.5 mph S7.2 kmh S 6.0 mph9.7 kmh 30.02 in1016.6 mb 0.00 in0.0 mm 0.00 in0.0 mm 0.00 in0.0 mm
04:10 PM 46.5°F8.1°C 34.0°F1.1°C 62% 3.2 mph SSW5.1 kmh SSW 6.0 mph9.7 kmh 30.02 in1016.6 mb 0.00 in0.0 mm 0.00 in0.0 mm 0.00 in0.0 mm
04:15 PM 46.0°F7.8°C 33.7°F0.9°C 62% 1.6 mph SW2.6 kmh SW 3.1 mph5.0 kmh 30.02 in1016.6 mb 0.00 in0.0 mm 0.00 in0.0 mm 0.00 in0.0 mm
04:20 PM 45.8°F7.7°C 34.4°F1.3°C 64% 2.6 mph WSW4.2 kmh WSW 5.4 mph8.7 kmh 30.02 in1016.6 mb 0.00 in0.0 mm 0.00 in0.0 mm 0.00 in0.0 mm
04:25 PM 45.5°F7.5°C 34.8°F1.6°C 66% 3.8 mph S6.1 kmh S 5.4 mph8.7 kmh 30.02 in1016.6 mb 0.00 in0.0 mm 0.00 in0.0 mm 0.00 in0.0 mm
04:30 PM 45.4°F7.4°C 34.9°F1.6°C 67% 4.3 mph SSW6.9 kmh SSW 6.9 mph11.1 kmh 30.02 in1016.6 mb 0.00 in0.0 mm 0.00 in0.0 mm 0.00 in0.0 mm
04:35 PM 45.3°F7.4°C 35.0°F1.7°C 67% 1.5 mph E2.4 kmh E 3.1 mph5.0 kmh 30.02 in1016.6 mb 0.00 in0.0 mm 0.00 in0.0 mm 0.00 in0.0 mm
04:40 PM 45.0°F7.2°C 34.7°F1.5°C 67% 1.8 mph N2.9 kmh N 3.1 mph5.0 kmh 30.02 in1016.6 mb 0.00 in0.0 mm 0.00 in0.0 mm 0.00 in0.0 mm
04:45 PM 44.4°F6.9°C 33.9°F1.1°C 66% 1.2 mph NE1.9 kmh NE 3.1 mph5.0 kmh 30.03 in1016.9 mb 0.00 in0.0 mm 0.00 in0.0 mm 0.00 in0.0 mm
04:50 PM 43.7°F6.5°C 33.3°F0.7°C 66% 1.3 mph N2.1 kmh N 2.2 mph3.5 kmh 30.03 in1016.9 mb 0.00 in0.0 mm 0.00 in0.0 mm 0.00 in0.0 mm
04:55 PM 43.0°F6.1°C 32.8°F0.4°C 67% 1.8 mph NNE2.9 kmh NNE 3.1 mph5.0 kmh 30.03 in1016.9 mb 0.00 in0.0 mm 0.00 in0.0 mm 0.00 in0.0 mm
05:00 PM 42.2°F5.7°C 32.3°F0.2°C 68% 2.7 mph NE4.3 kmh NE 3.8 mph6.1 kmh 30.04 in1017.3 mb 0.00 in0.0 mm 0.00 in0.0 mm 0.00 in0.0 mm
05:05 PM 41.7°F5.4°C 32.5°F0.3°C 70% 2.6 mph N4.2 kmh N 3.8 mph6.1 kmh 30.04 in1017.3 mb 0.00 in0.0 mm 0.00 in0.0 mm 0.00 in0.0 mm
05:10 PM 41.2°F5.1°C 32.4°F0.2°C 71% 1.6 mph NNE2.6 kmh NNE 2.2 mph3.5 kmh 30.04 in1017.3 mb 0.00 in0.0 mm 0.00 in0.0 mm 0.00 in0.0 mm
05:15 PM 40.7°F4.8°C 32.2°F0.1°C 71% 1.5 mph NE2.4 kmh NE 3.8 mph6.1 kmh 30.04 in1017.3 mb 0.00 in0.0 mm 0.00 in0.0 mm 0.00 in0.0 mm
05:20 PM 40.3°F4.6°C 32.0°F0.0°C 72% 2.2 mph NE3.5 kmh NE 3.8 mph6.1 kmh 30.04 in1017.3 mb 0.00 in0.0 mm 0.00 in0.0 mm 0.00 in0.0 mm
05:25 PM 39.9°F4.4°C 31.7°F-0.2°C 72% 2.2 mph NE3.5 kmh NE 3.1 mph5.0 kmh 30.04 in1017.3 mb 0.00 in0.0 mm 0.00 in0.0 mm 0.00 in0.0 mm
05:30 PM 39.5°F4.2°C 31.7°F-0.2°C 73% 2.4 mph N3.9 kmh N 3.8 mph6.1 kmh 30.04 in1017.3 mb 0.00 in0.0 mm 0.00 in0.0 mm 0.00 in0.0 mm
05:35 PM 39.4°F4.1°C 31.8°F-0.1°C 74% 1.5 mph N2.4 kmh N 3.1 mph5.0 kmh 30.04 in1017.3 mb 0.00 in0.0 mm 0.00 in0.0 mm 0.00 in0.0 mm
05:40 PM 39.3°F4.1°C 31.9°F-0.1°C 75% 1.0 mph NNW1.6 kmh NNW 2.2 mph3.5 kmh 30.04 in1017.3 mb 0.00 in0.0 mm 0.00 in0.0 mm 0.00 in0.0 mm
05:45 PM 39.0°F3.9°C 31.7°F-0.2°C 75% 1.4 mph NE2.3 kmh NE 3.8 mph6.1 kmh 30.04 in1017.3 mb 0.00 in0.0 mm 0.00 in0.0 mm 0.00 in0.0 mm
05:50 PM 38.7°F3.7°C 31.5°F-0.3°C 75% 3.0 mph NE4.8 kmh NE 3.8 mph6.1 kmh 30.04 in1017.3 mb 0.00 in0.0 mm 0.00 in0.0 mm 0.00 in0.0 mm
05:55 PM 38.5°F3.6°C 31.4°F-0.3°C 75% 1.9 mph NNE3.1 kmh NNE 3.1 mph5.0 kmh 30.04 in1017.3 mb 0.00 in0.0 mm 0.00 in0.0 mm 0.00 in0.0 mm
06:00 PM 38.4°F3.6°C 31.5°F-0.3°C 76% 1.4 mph NNE2.3 kmh NNE 2.2 mph3.5 kmh 30.04 in1017.3 mb 0.00 in0.0 mm 0.00 in0.0 mm 0.00 in0.0 mm
06:05 PM 38.3°F3.5°C 31.4°F-0.3°C 76% 1.6 mph NE2.6 kmh NE 2.2 mph3.5 kmh 30.04 in1017.3 mb 0.00 in0.0 mm 0.00 in0.0 mm 0.00 in0.0 mm
06:10 PM 38.2°F3.4°C 31.5°F-0.3°C 77% 1.2 mph NE1.9 kmh NE 2.2 mph3.5 kmh 30.04 in1017.3 mb 0.00 in0.0 mm 0.00 in0.0 mm 0.00 in0.0 mm
06:15 PM 38.1°F3.4°C 31.8°F-0.1°C 78% 0.7 mph NNE1.1 kmh NNE 1.6 mph2.6 kmh 30.04 in1017.3 mb 0.00 in0.0 mm 0.00 in0.0 mm 0.00 in0.0 mm
06:20 PM 37.8°F3.2°C 31.3°F-0.4°C 77% 0.9 mph N1.4 kmh N 2.2 mph3.5 kmh 30.04 in1017.3 mb 0.00 in0.0 mm 0.00 in0.0 mm 0.00 in0.0 mm
06:25 PM 37.5°F3.1°C 30.9°F-0.6°C 77% 2.4 mph NE3.9 kmh NE 4.5 mph7.2 kmh 30.04 in1017.3 mb 0.00 in0.0 mm 0.00 in0.0 mm 0.00 in0.0 mm
06:30 PM 37.2°F2.9°C 30.7°F-0.7°C 77% 2.4 mph NE3.9 kmh NE 3.1 mph5.0 kmh 30.04 in1017.3 mb 0.00 in0.0 mm 0.00 in0.0 mm 0.00 in0.0 mm
06:35 PM 37.0°F2.8°C 30.6°F-0.8°C 77% 2.9 mph NE4.7 kmh NE 3.8 mph6.1 kmh 30.03 in1016.9 mb 0.00 in0.0 mm 0.00 in0.0 mm 0.00 in0.0 mm
06:40 PM 37.0°F2.8°C 30.8°F-0.7°C 78% 2.1 mph NNE3.4 kmh NNE 3.8 mph6.1 kmh 30.04 in1017.3 mb 0.00 in0.0 mm 0.00 in0.0 mm 0.00 in0.0 mm
06:45 PM 37.0°F2.8°C 31.1°F-0.5°C 79% 1.8 mph NNE2.9 kmh NNE 3.1 mph5.0 kmh 30.04 in1017.3 mb 0.00 in0.0 mm 0.00 in0.0 mm 0.00 in0.0 mm
06:50 PM 36.6°F2.6°C 30.7°F-0.7°C 79% 2.9 mph NE4.7 kmh NE 3.8 mph6.1 kmh 30.03 in1016.9 mb 0.00 in0.0 mm 0.00 in0.0 mm 0.00 in0.0 mm
06:55 PM 36.2°F2.3°C 30.3°F-0.9°C 79% 2.0 mph N3.2 kmh N 3.1 mph5.0 kmh 30.04 in1017.3 mb 0.00 in0.0 mm 0.00 in0.0 mm 0.00 in0.0 mm
07:00 PM 36.1°F2.3°C 30.4°F-0.9°C 79% 1.5 mph NNE2.4 kmh NNE 2.2 mph3.5 kmh 30.04 in1017.3 mb 0.00 in0.0 mm 0.00 in0.0 mm 0.00 in0.0 mm
07:05 PM 36.1°F2.3°C 30.6°F-0.8°C 80% 1.9 mph NNE3.1 kmh NNE 3.8 mph6.1 kmh 30.04 in1017.3 mb 0.00 in0.0 mm 0.00 in0.0 mm 0.00 in0.0 mm
07:10 PM 36.0°F2.2°C 30.5°F-0.8°C 80% 1.7 mph 2.7 kmh 3.1 mph5.0 kmh 30.04 in1017.3 mb 0.00 in0.0 mm 0.00 in0.0 mm 0.00 in0.0 mm
07:15 PM 35.9°F2.2°C 30.4°F-0.9°C 80% 0.8 mph NW1.3 kmh NW 2.2 mph3.5 kmh 30.04 in1017.3 mb 0.00 in0.0 mm 0.00 in0.0 mm 0.00 in0.0 mm
07:20 PM 35.5°F1.9°C 30.0°F-1.1°C 80% 1.6 mph NE2.6 kmh NE 3.1 mph5.0 kmh 30.04 in1017.3 mb 0.00 in0.0 mm 0.00 in0.0 mm 0.00 in0.0 mm
07:25 PM 35.1°F1.7°C 29.6°F-1.3°C 80% 2.2 mph NE3.5 kmh NE 3.1 mph5.0 kmh 30.04 in1017.3 mb 0.00 in0.0 mm 0.00 in0.0 mm 0.00 in0.0 mm
07:30 PM 34.8°F1.6°C 29.3°F-1.5°C 80% 1.6 mph NE2.6 kmh NE 2.2 mph3.5 kmh 30.04 in1017.3 mb 0.00 in0.0 mm 0.00 in0.0 mm 0.00 in0.0 mm
07:35 PM 34.7°F1.5°C 29.2°F-1.6°C 80% 2.1 mph NE3.4 kmh NE 3.8 mph6.1 kmh 30.04 in1017.3 mb 0.00 in0.0 mm 0.00 in0.0 mm 0.00 in0.0 mm
07:40 PM 34.7°F1.5°C 29.2°F-1.6°C 80% 2.1 mph NE3.4 kmh NE 3.1 mph5.0 kmh 30.04 in1017.3 mb 0.00 in0.0 mm 0.00 in0.0 mm 0.00 in0.0 mm
07:45 PM 34.7°F1.5°C 29.2°F-1.6°C 80% 1.7 mph NE2.7 kmh NE 3.1 mph5.0 kmh 30.04 in1017.3 mb 0.00 in0.0 mm 0.00 in0.0 mm 0.00 in0.0 mm
07:50 PM 34.7°F1.5°C 29.2°F-1.6°C 80% 1.4 mph NE2.3 kmh NE 2.2 mph3.5 kmh 30.04 in1017.3 mb 0.00 in0.0 mm 0.00 in0.0 mm 0.00 in0.0 mm
07:55 PM 34.6°F1.4°C 29.4°F-1.4°C 81% 0.9 mph NE1.4 kmh NE 2.2 mph3.5 kmh 30.04 in1017.3 mb 0.00 in0.0 mm 0.00 in0.0 mm 0.00 in0.0 mm
08:00 PM 34.4°F1.3°C 29.2°F-1.6°C 81% 1.5 mph NE2.4 kmh NE 3.1 mph5.0 kmh 30.04 in1017.3 mb 0.00 in0.0 mm 0.00 in0.0 mm 0.00 in0.0 mm
08:05 PM 34.3°F1.3°C 29.1°F-1.6°C 81% 2.2 mph E3.5 kmh E 3.1 mph5.0 kmh 30.04 in1017.3 mb 0.00 in0.0 mm 0.00 in0.0 mm 0.00 in0.0 mm
08:10 PM 34.0°F1.1°C 28.8°F-1.8°C 81% 2.2 mph ENE3.5 kmh ENE 3.1 mph5.0 kmh 30.04 in1017.3 mb 0.00 in0.0 mm 0.00 in0.0 mm 0.00 in0.0 mm
08:15 PM 33.8°F1.0°C 28.6°F-1.9°C 81% 1.6 mph NE2.6 kmh NE 3.1 mph5.0 kmh 30.04 in1017.3 mb 0.00 in0.0 mm 0.00 in0.0 mm 0.00 in0.0 mm
08:20 PM 33.8°F1.0°C 28.6°F-1.9°C 81% 0.7 mph N1.1 kmh N 1.6 mph2.6 kmh 30.04 in1017.3 mb 0.00 in0.0 mm 0.00 in0.0 mm 0.00 in0.0 mm
08:25 PM 33.8°F1.0°C 28.6°F-1.9°C 81% 2.1 mph NE3.4 kmh NE 3.1 mph5.0 kmh 30.04 in1017.3 mb 0.00 in0.0 mm 0.00 in0.0 mm 0.00 in0.0 mm
08:30 PM 33.8°F1.0°C 28.6°F-1.9°C 81% 2.0 mph NE3.2 kmh NE 3.1 mph5.0 kmh 30.04 in1017.3 mb 0.00 in0.0 mm 0.00 in0.0 mm 0.00 in0.0 mm
08:35 PM 33.8°F1.0°C 28.6°F-1.9°C 81% 2.4 mph NE3.9 kmh NE 3.8 mph6.1 kmh 30.04 in1017.3 mb 0.00 in0.0 mm 0.00 in0.0 mm 0.00 in0.0 mm
08:40 PM 33.6°F0.9°C 28.4°F-2.0°C 81% 0.2 mph 0.3 kmh 1.6 mph2.6 kmh 30.04 in1017.3 mb 0.00 in0.0 mm 0.00 in0.0 mm 0.00 in0.0 mm
08:45 PM 33.4°F0.8°C 28.2°F-2.1°C 81% 1.1 mph NE1.8 kmh NE 2.2 mph3.5 kmh 30.04 in1017.3 mb 0.00 in0.0 mm 0.00 in0.0 mm 0.00 in0.0 mm
08:50 PM 33.4°F0.8°C 28.2°F-2.1°C 81% 1.9 mph NE3.1 kmh NE 3.1 mph5.0 kmh 30.04 in1017.3 mb 0.00 in0.0 mm 0.00 in0.0 mm 0.00 in0.0 mm
08:55 PM 33.2°F0.7°C 28.0°F-2.2°C 81% 1.9 mph NE3.1 kmh NE 3.1 mph5.0 kmh 30.04 in1017.3 mb 0.00 in0.0 mm 0.00 in0.0 mm 0.00 in0.0 mm
09:00 PM 33.1°F0.6°C 27.9°F-2.3°C 81% 1.2 mph NNE1.9 kmh NNE 2.2 mph3.5 kmh 30.04 in1017.3 mb 0.00 in0.0 mm 0.00 in0.0 mm 0.00 in0.0 mm
09:05 PM 33.0°F0.6°C 27.8°F-2.3°C 81% 1.2 mph NE1.9 kmh NE 2.2 mph3.5 kmh 30.04 in1017.3 mb 0.00 in0.0 mm 0.00 in0.0 mm 0.00 in0.0 mm
09:10 PM 32.7°F0.4°C 27.6°F-2.4°C 81% 0.4 mph WSW0.6 kmh WSW 1.6 mph2.6 kmh 30.04 in1017.3 mb 0.00 in0.0 mm 0.00 in0.0 mm 0.00 in0.0 mm
09:15 PM 32.7°F0.4°C 27.5°F-2.5°C 81% 0.5 mph N0.8 kmh N 1.6 mph2.6 kmh 30.04 in1017.3 mb 0.00 in0.0 mm 0.00 in0.0 mm 0.00 in0.0 mm
09:20 PM 32.5°F0.3°C 27.4°F-2.6°C 81% 0.6 mph N1.0 kmh N 1.6 mph2.6 kmh 30.04 in1017.3 mb 0.00 in0.0 mm 0.00 in0.0 mm 0.00 in0.0 mm
09:25 PM 32.5°F0.3°C 27.4°F-2.6°C 81% 1.3 mph NE2.1 kmh NE 2.2 mph3.5 kmh 30.04 in1017.3 mb 0.00 in0.0 mm 0.00 in0.0 mm 0.00 in0.0 mm
09:30 PM 32.5°F0.3°C 27.4°F-2.6°C 81% 1.8 mph NE2.9 kmh NE 3.1 mph5.0 kmh 30.04 in1017.3 mb 0.00 in0.0 mm 0.00 in0.0 mm 0.00 in0.0 mm
09:35 PM 32.7°F0.4°C 27.5°F-2.5°C 81% 2.1 mph NE3.4 kmh NE 3.1 mph5.0 kmh 30.04 in1017.3 mb 0.00 in0.0 mm 0.00 in0.0 mm 0.00 in0.0 mm
09:40 PM 32.7°F0.4°C 27.5°F-2.5°C 81% 1.6 mph NE2.6 kmh NE 3.1 mph5.0 kmh 30.04 in1017.3 mb 0.00 in0.0 mm 0.00 in0.0 mm 0.00 in0.0 mm
09:45 PM 32.7°F0.4°C 27.5°F-2.5°C 81% 1.8 mph NE2.9 kmh NE 3.1 mph5.0 kmh 30.04 in1017.3 mb 0.00 in0.0 mm 0.00 in0.0 mm 0.00 in0.0 mm
09:50 PM 32.7°F0.4°C 27.8°F-2.3°C 82% 2.5 mph NE4.0 kmh NE 3.8 mph6.1 kmh 30.04 in1017.3 mb 0.00 in0.0 mm 0.00 in0.0 mm 0.00 in0.0 mm
09:55 PM 32.6°F0.3°C 27.7°F-2.4°C 82% 1.7 mph NE2.7 kmh NE 3.1 mph5.0 kmh 30.03 in1016.9 mb 0.00 in0.0 mm 0.00 in0.0 mm 0.00 in0.0 mm
10:00 PM 32.5°F0.3°C 27.6°F-2.4°C 82% 1.0 mph NE1.6 kmh NE 2.2 mph3.5 kmh 30.03 in1016.9 mb 0.00 in0.0 mm 0.00 in0.0 mm 0.00 in0.0 mm
10:05 PM 32.4°F0.2°C 27.5°F-2.5°C 82% 0.7 mph 1.1 kmh 1.6 mph2.6 kmh 30.03 in1016.9 mb 0.00 in0.0 mm 0.00 in0.0 mm 0.00 in0.0 mm
10:10 PM 32.2°F0.1°C 27.3°F-2.6°C 82% 1.9 mph NE3.1 kmh NE 3.8 mph6.1 kmh 30.04 in1017.3 mb 0.00 in0.0 mm 0.00 in0.0 mm 0.00 in0.0 mm
10:15 PM 32.0°F0.0°C 27.1°F-2.7°C 82% 2.6 mph NE4.2 kmh NE 3.8 mph6.1 kmh 30.04 in1017.3 mb 0.00 in0.0 mm 0.00 in0.0 mm 0.00 in0.0 mm
10:20 PM 31.8°F-0.1°C 27.0°F-2.8°C 82% 1.8 mph NE2.9 kmh NE 2.2 mph3.5 kmh 30.04 in1017.3 mb 0.00 in0.0 mm 0.00 in0.0 mm 0.00 in0.0 mm
10:25 PM 31.8°F-0.1°C 26.9°F-2.8°C 82% 1.6 mph NE2.6 kmh NE 3.1 mph5.0 kmh 30.04 in1017.3 mb 0.00 in0.0 mm 0.00 in0.0 mm 0.00 in0.0 mm
10:30 PM 31.6°F-0.2°C 26.8°F-2.9°C 82% 1.3 mph NE2.1 kmh NE 2.2 mph3.5 kmh 30.04 in1017.3 mb 0.00 in0.0 mm 0.00 in0.0 mm 0.00 in0.0 mm
10:35 PM 31.5°F-0.3°C 26.7°F-2.9°C 82% 0.5 mph NE0.8 kmh NE 1.6 mph2.6 kmh 30.04 in1017.3 mb 0.00 in0.0 mm 0.00 in0.0 mm 0.00 in0.0 mm
10:40 PM 31.5°F-0.3°C 26.6°F-3.0°C 82% 1.1 mph NE1.8 kmh NE 2.2 mph3.5 kmh 30.04 in1017.3 mb 0.00 in0.0 mm 0.00 in0.0 mm 0.00 in0.0 mm
10:45 PM 31.4°F-0.3°C 26.6°F-3.0°C 82% 2.2 mph NE3.5 kmh NE 3.1 mph5.0 kmh 30.04 in1017.3 mb 0.00 in0.0 mm 0.00 in0.0 mm 0.00 in0.0 mm
10:50 PM 31.3°F-0.4°C 26.4°F-3.1°C 82% 1.5 mph NE2.4 kmh NE 2.2 mph3.5 kmh 30.04 in1017.3 mb 0.00 in0.0 mm 0.00 in0.0 mm 0.00 in0.0 mm
10:55 PM 31.2°F-0.4°C 26.4°F-3.1°C 82% Calm Calm 0.7 mph1.1 kmh 30.04 in1017.3 mb 0.00 in0.0 mm 0.00 in0.0 mm 0.00 in0.0 mm
11:00 PM 31.1°F-0.5°C 26.3°F-3.2°C 82% Calm Calm 0.7 mph1.1 kmh 30.04 in1017.3 mb 0.00 in0.0 mm 0.00 in0.0 mm 0.00 in0.0 mm
11:05 PM 31.1°F-0.5°C 26.3°F-3.2°C 82% Calm Calm 0.7 mph1.1 kmh 30.03 in1016.9 mb 0.00 in0.0 mm 0.00 in0.0 mm 0.00 in0.0 mm
11:10 PM 30.9°F-0.6°C 26.1°F-3.3°C 82% 0.6 mph NE1.0 kmh NE 1.6 mph2.6 kmh 30.04 in1017.3 mb 0.00 in0.0 mm 0.00 in0.0 mm 0.00 in0.0 mm
11:15 PM 31.0°F-0.6°C 26.2°F-3.2°C 82% 0.7 mph NE1.1 kmh NE 1.6 mph2.6 kmh 30.04 in1017.3 mb 0.00 in0.0 mm 0.00 in0.0 mm 0.00 in0.0 mm
11:20 PM 31.2°F-0.4°C 26.3°F-3.2°C 82% 0.5 mph 0.8 kmh 1.6 mph2.6 kmh 30.04 in1017.3 mb 0.00 in0.0 mm 0.00 in0.0 mm 0.00 in0.0 mm
11:25 PM 31.4°F-0.3°C 26.5°F-3.1°C 82% Calm Calm 0.7 mph1.1 kmh 30.03 in1016.9 mb 0.00 in0.0 mm 0.00 in0.0 mm 0.00 in0.0 mm
11:30 PM 31.6°F-0.2°C 26.7°F-2.9°C 82% 0.3 mph NNW0.5 kmh NNW 1.6 mph2.6 kmh 30.03 in1016.9 mb 0.00 in0.0 mm 0.00 in0.0 mm 0.00 in0.0 mm
11:35 PM 31.8°F-0.1°C 27.0°F-2.8°C 82% 0.4 mph 0.6 kmh 1.6 mph2.6 kmh 30.03 in1016.9 mb 0.00 in0.0 mm 0.00 in0.0 mm 0.00 in0.0 mm
11:40 PM 32.0°F0.0°C 27.1°F-2.7°C 82% 0.3 mph NE0.5 kmh NE 1.6 mph2.6 kmh 30.03 in1016.9 mb 0.00 in0.0 mm 0.00 in0.0 mm 0.00 in0.0 mm
11:45 PM 32.0°F0.0°C 27.1°F-2.7°C 82% Calm Calm 0.7 mph1.1 kmh 30.02 in1016.6 mb 0.00 in0.0 mm 0.00 in0.0 mm 0.00 in0.0 mm
11:50 PM 32.0°F0.0°C 27.1°F-2.7°C 82% 1.1 mph NNE1.8 kmh NNE 2.2 mph3.5 kmh 30.02 in1016.6 mb 0.00 in0.0 mm 0.00 in0.0 mm 0.00 in0.0 mm
11:55 PM 31.9°F-0.1°C 27.0°F-2.8°C 82% 2.3 mph NE3.7 kmh NE 3.8 mph6.1 kmh 30.03 in1016.9 mb 0.00 in0.0 mm 0.00 in0.0 mm 0.00 in0.0 mm